Forside
METAR-TAF:

METAR-TAF

Lufthavne :

Shanghai Pudong International Airport

Shanghai-Pudong, Kina

Breddekreds: 31-07N, længdekreds: 121-46E, højde: 4 m

Aktuelle vejr

Denne rapport blev lavet for 10 minutter siden, kl. 17:00 UTC
Vind 6 kt fra syd
Temperatur 26°C
Fugtighed 94%
Tryk 1006 hPa
Sigt: 8000 m

METAR: ZSPD 251700Z 19003MPS 8000 NSC 26/25 Q1006 NOSIG

Tid: 01:10 (17:10 UTC)

Vejrudsigter

Denne rapport blev lavet for 7 timer og 56 minutter siden, kl. 09:14 UTC
Foreløbig gælder fra 25 på 12 UTC til 26 på 12 UTC
Vind 8 kt fra sydsydøst
Sigt: 6000 m
Spredte skyer i en højde af 2000 ft

TAF: ZSPD 250914Z 2512/2612 16004MPS 6000 SCT020 TX36/2606Z TN26/2521Z

Vejrobservationer og prognoser fra mere end 4000 lufthavne (METAR og TAF).

De gule og røde prikker repræsenterer de meteorologiske stationer.

Flyt musen over at se navnet på stationen.

Så klik over at se vejr observationer og prognoser.

At skifte det kort: Klik på de grønne knapper med et sort kors for at zoome ind; på den grønne knap med en bindestreg for at zoome ud; eller på de grønne pile for tilstødende kort.


METAR-TAF: